createdAt,value
2019-03-27T00:00:07.918Z,36.03
2019-03-27T00:01:07.907Z,36.05
2019-03-27T00:02:07.893Z,36.05
2019-03-27T00:03:07.923Z,36.15
2019-03-27T00:04:07.909Z,36.35
2019-03-27T00:05:07.865Z,36.35
2019-03-27T00:06:07.858Z,36.25
2019-03-27T00:07:07.840Z,36.25
2019-03-27T00:08:07.831Z,36.25
2019-03-27T00:09:07.860Z,35.85
2019-03-27T00:10:07.813Z,36.15
2019-03-27T00:11:07.799Z,36.15
2019-03-27T00:12:07.783Z,35.95
2019-03-27T00:13:07.773Z,36.55
2019-03-27T00:14:07.773Z,35.95
2019-03-27T00:15:13.415Z,35.95
2019-03-27T00:16:07.745Z,36.55
2019-03-27T00:17:07.731Z,36.15
2019-03-27T00:18:07.721Z,36.15
2019-03-27T00:19:07.741Z,36.15
2019-03-27T00:20:07.696Z,36.05
2019-03-27T00:21:07.677Z,36.25
2019-03-27T00:22:07.675Z,36.35
2019-03-27T00:23:07.665Z,35.75
2019-03-27T00:24:07.666Z,35.95
2019-03-27T00:25:07.646Z,36.65
2019-03-27T00:26:07.625Z,36.15
2019-03-27T00:27:07.620Z,36.35
2019-03-27T00:28:07.692Z,36.35
2019-03-27T00:29:07.610Z,36.35
2019-03-27T00:30:07.594Z,36.35
2019-03-27T00:31:07.575Z,36.07
2019-03-27T00:32:07.582Z,36.05
2019-03-27T00:33:07.550Z,36.05
2019-03-27T00:34:07.599Z,36.45
2019-03-27T00:35:07.557Z,36.15
2019-03-27T00:36:07.519Z,36.45
2019-03-27T00:37:07.507Z,36.45
2019-03-27T00:38:07.499Z,35.75
2019-03-27T00:39:07.502Z,35.95
2019-03-27T00:40:07.477Z,36.07
2019-03-27T00:41:07.461Z,35.75
2019-03-27T00:42:07.446Z,36.65
2019-03-27T00:43:07.458Z,36.67
2019-03-27T00:44:07.439Z,36.55
2019-03-27T00:45:07.424Z,36.45
2019-03-27T00:46:07.404Z,36.05
2019-03-27T00:47:07.390Z,36.45
2019-03-27T00:48:07.484Z,35.75
2019-03-27T00:49:07.401Z,36.55
2019-03-27T00:50:07.379Z,35.75
2019-03-27T00:51:07.350Z,36.45
2019-03-27T00:52:07.346Z,36.65
2019-03-27T00:53:07.326Z,36.65
2019-03-27T00:54:07.332Z,36.55
2019-03-27T00:55:07.305Z,36.15
2019-03-27T00:56:07.308Z,36.45
2019-03-27T00:57:07.308Z,35.95
2019-03-27T00:58:07.309Z,35.95
2019-03-27T00:59:07.279Z,35.85
2019-03-27T01:00:07.245Z,36.65
2019-03-27T01:01:07.235Z,36.05
2019-03-27T01:02:07.241Z,36.85
2019-03-27T01:03:07.230Z,36.65
2019-03-27T01:04:07.231Z,36.05
2019-03-27T01:05:07.220Z,35.44
2019-03-27T01:06:07.177Z,35.95
2019-03-27T01:07:07.170Z,36.05
2019-03-27T01:08:07.160Z,36.15
2019-03-27T01:09:07.263Z,36.05
2019-03-27T01:10:07.137Z,36.55
2019-03-27T01:11:07.184Z,36.16
2019-03-27T01:12:07.115Z,36.35
2019-03-27T01:13:07.104Z,35.95
2019-03-27T01:14:07.090Z,36.05
2019-03-27T01:15:07.103Z,36.05
2019-03-27T01:16:07.073Z,35.55
2019-03-27T01:17:07.083Z,35.85
2019-03-27T01:18:07.049Z,36.05
2019-03-27T01:19:07.035Z,36.05
2019-03-27T01:20:07.026Z,35.95
2019-03-27T01:21:07.015Z,36.05
2019-03-27T01:22:07.000Z,36.07
2019-03-27T01:23:06.988Z,36.85
2019-03-27T01:24:06.978Z,35.85
2019-03-27T01:25:06.999Z,35.75
2019-03-27T01:26:06.959Z,35.75
2019-03-27T01:27:06.943Z,35.97
2019-03-27T01:28:06.942Z,36.15
2019-03-27T01:29:06.928Z,36.45
2019-03-27T01:30:06.927Z,36.25
2019-03-27T01:31:06.932Z,36.65
2019-03-27T01:32:06.888Z,36.15
2019-03-27T01:33:06.877Z,36.35
2019-03-27T01:34:06.872Z,36.05
2019-03-27T01:35:06.869Z,35.95
2019-03-27T01:36:06.846Z,35.95
2019-03-27T01:37:06.904Z,36.55
2019-03-27T01:38:06.817Z,36.15
2019-03-27T01:39:06.809Z,36.15
2019-03-27T01:40:06.825Z,36.05
2019-03-27T01:41:06.809Z,36.15
2019-03-27T01:42:06.782Z,35.95
2019-03-27T01:43:06.780Z,36.05
2019-03-27T01:44:06.758Z,36.15
2019-03-27T01:45:06.757Z,36.65
2019-03-27T01:46:06.739Z,36.35
2019-03-27T01:47:06.742Z,36.35
2019-03-27T01:48:06.712Z,36.25
2019-03-27T01:49:06.708Z,36.55
2019-03-27T01:50:06.700Z,36.15
2019-03-27T01:51:06.871Z,36.85
2019-03-27T01:52:08.120Z,36.05
2019-03-27T01:53:06.662Z,36.15
2019-03-27T01:54:06.721Z,36.25
2019-03-27T01:55:06.645Z,36.25
2019-03-27T01:56:06.627Z,36.05
2019-03-27T01:57:06.609Z,36.65
2019-03-27T01:58:06.600Z,36.65
2019-03-27T01:59:06.606Z,36.65
2019-03-27T02:00:07.260Z,36.35
2019-03-27T02:01:06.567Z,36.55
2019-03-27T02:02:06.578Z,35.95
2019-03-27T02:03:06.547Z,36.15
2019-03-27T02:04:06.551Z,36.15
2019-03-27T02:05:06.533Z,36.15
2019-03-27T02:06:06.521Z,36.15
2019-03-27T02:07:06.508Z,36.15
2019-03-27T02:08:06.483Z,36.25
2019-03-27T02:09:06.477Z,36.15
2019-03-27T02:10:06.468Z,36.15
2019-03-27T02:11:06.471Z,36.15
2019-03-27T02:12:06.446Z,36.15
2019-03-27T02:13:06.444Z,36.35
2019-03-27T02:14:06.422Z,36.15
2019-03-27T02:15:06.411Z,36.36
2019-03-27T02:16:07.494Z,36.36
2019-03-27T02:17:06.401Z,35.97
2019-03-27T02:18:06.385Z,35.97
2019-03-27T02:19:06.362Z,36.15
2019-03-27T02:20:06.353Z,36.15
2019-03-27T02:21:06.356Z,36.05
2019-03-27T02:22:06.326Z,36.05
2019-03-27T02:23:06.317Z,36.05
2019-03-27T02:24:06.310Z,36.45
2019-03-27T02:25:06.293Z,36.35
2019-03-27T02:26:06.295Z,35.75
2019-03-27T02:27:06.291Z,36.35
2019-03-27T02:28:06.269Z,36.25
2019-03-27T02:29:06.244Z,36.35
2019-03-27T02:30:06.253Z,35.75
2019-03-27T02:31:06.242Z,36.35
2019-03-27T02:32:06.216Z,36.25
2019-03-27T02:33:06.225Z,36.15
2019-03-27T02:34:06.212Z,36.15
2019-03-27T02:35:06.183Z,36.35
2019-03-27T02:36:06.311Z,36.15
2019-03-27T02:37:06.160Z,36.25
2019-03-27T02:38:06.147Z,36.15
2019-03-27T02:39:06.162Z,36.05
2019-03-27T02:40:06.256Z,36.15
2019-03-27T02:41:06.115Z,35.95
2019-03-27T02:42:06.111Z,36.55
2019-03-27T02:43:06.095Z,36.15
2019-03-27T02:44:06.093Z,36.45
2019-03-27T02:45:06.079Z,36.65
2019-03-27T02:46:23.263Z,36.55
2019-03-27T02:47:06.056Z,35.95
2019-03-27T02:48:06.040Z,36.15
2019-03-27T02:49:06.034Z,36.35
2019-03-27T02:50:06.027Z,36.15
2019-03-27T02:51:06.011Z,36.35
2019-03-27T02:52:06.026Z,36.15
2019-03-27T02:53:06.020Z,36.16
2019-03-27T02:54:05.978Z,36.15
2019-03-27T02:55:05.989Z,36.55
2019-03-27T02:56:06.066Z,36.45
2019-03-27T02:57:05.953Z,36.45
2019-03-27T02:58:05.932Z,36.55
2019-03-27T02:59:05.926Z,36.35
2019-03-27T03:00:05.935Z,36.45
2019-03-27T03:01:05.899Z,36.25
2019-03-27T03:02:05.905Z,36.15
2019-03-27T03:03:05.907Z,36.15
2019-03-27T03:04:05.872Z,36.25
2019-03-27T03:05:05.855Z,35.95
2019-03-27T03:06:05.939Z,36.67
2019-03-27T03:07:05.875Z,36.65
2019-03-27T03:08:05.849Z,36.47
2019-03-27T03:09:05.831Z,36.15
2019-03-27T03:10:05.803Z,36.65
2019-03-27T03:11:05.785Z,36.65
2019-03-27T03:12:05.793Z,36.27
2019-03-27T03:13:05.793Z,35.95
2019-03-27T03:14:05.774Z,35.95
2019-03-27T03:15:05.755Z,35.75
2019-03-27T03:16:05.745Z,35.85
2019-03-27T03:17:05.733Z,36.15
2019-03-27T03:18:05.742Z,36.35
2019-03-27T03:19:05.729Z,36.15
2019-03-27T03:20:05.684Z,36.15
2019-03-27T03:21:05.677Z,35.95
2019-03-27T03:22:05.684Z,36.25
2019-03-27T03:23:05.680Z,36.36
2019-03-27T03:24:05.653Z,35.85
2019-03-27T03:25:05.632Z,35.85
2019-03-27T03:26:05.630Z,36.45
2019-03-27T03:27:05.636Z,35.85
2019-03-27T03:28:05.596Z,36.15
2019-03-27T03:29:05.602Z,36.65
2019-03-27T03:30:05.574Z,36.67
2019-03-27T03:31:05.574Z,36.16
2019-03-27T03:32:05.591Z,36.35
2019-03-27T03:33:05.561Z,36.47
2019-03-27T03:34:05.531Z,36.36
2019-03-27T03:35:05.530Z,36.36
2019-03-27T03:36:05.516Z,36.47
2019-03-27T03:37:05.667Z,36.47
2019-03-27T03:38:05.489Z,36.77
2019-03-27T03:39:05.472Z,35.77
2019-03-27T03:40:05.507Z,35.77
2019-03-27T03:41:05.460Z,35.77
2019-03-27T03:42:06.467Z,36.07
2019-03-27T03:43:05.432Z,35.77
2019-03-27T03:44:05.428Z,36.47
2019-03-27T03:45:05.410Z,36.27
2019-03-27T03:46:05.399Z,36.36
2019-03-27T03:47:05.405Z,36.47
2019-03-27T03:48:05.432Z,36.07
2019-03-27T03:49:05.366Z,36.57
2019-03-27T03:50:05.363Z,36.16
2019-03-27T03:51:05.360Z,36.36
2019-03-27T03:52:05.347Z,36.36
2019-03-27T03:53:05.322Z,36.16
2019-03-27T03:54:05.309Z,36.47
2019-03-27T03:55:05.304Z,36.36
2019-03-27T03:56:05.289Z,36.27
2019-03-27T03:57:05.293Z,36.16
2019-03-27T03:58:05.273Z,36.27
2019-03-27T03:59:05.253Z,36.16
2019-03-27T04:00:05.243Z,36.36
2019-03-27T04:01:05.280Z,36.36
2019-03-27T04:02:05.253Z,36.36
2019-03-27T04:03:05.254Z,36.47
2019-03-27T04:04:05.197Z,36.07
2019-03-27T04:05:05.198Z,36.16
2019-03-27T04:06:05.186Z,36.67
2019-03-27T04:07:05.187Z,35.77
2019-03-27T04:08:05.175Z,35.86
2019-03-27T04:09:05.162Z,35.77
2019-03-27T04:10:05.161Z,35.97
2019-03-27T04:11:05.119Z,36.07
2019-03-27T04:12:05.123Z,36.07
2019-03-27T04:13:05.110Z,35.77
2019-03-27T04:14:05.106Z,35.97
2019-03-27T04:15:05.081Z,35.86
2019-03-27T04:16:05.068Z,35.86
2019-03-27T04:17:16.998Z,35.86
2019-03-27T04:18:05.091Z,35.77
2019-03-27T04:19:05.070Z,36.07
2019-03-27T04:20:05.033Z,35.97
2019-03-27T04:21:05.024Z,36.16
2019-03-27T04:22:05.000Z,36.67
2019-03-27T04:23:05.012Z,36.97
2019-03-27T04:24:04.997Z,35.97
2019-03-27T04:25:04.970Z,35.86
2019-03-27T04:26:10.398Z,36.67
2019-03-27T04:27:04.953Z,35.97
2019-03-27T04:28:04.978Z,36.67
2019-03-27T04:29:04.924Z,36.57
2019-03-27T04:30:04.920Z,36.97
2019-03-27T04:31:04.911Z,36.07
2019-03-27T04:32:04.909Z,36.07
2019-03-27T04:33:04.928Z,36.07
2019-03-27T04:34:04.870Z,35.86
2019-03-27T04:35:04.857Z,36.27
2019-03-27T04:36:04.852Z,36.67
2019-03-27T04:37:04.834Z,35.86
2019-03-27T04:38:04.863Z,36.67
2019-03-27T04:39:04.838Z,35.86
2019-03-27T04:40:04.816Z,35.97
2019-03-27T04:41:04.804Z,36.67
2019-03-27T04:42:04.782Z,36.77
2019-03-27T04:43:04.821Z,35.86
2019-03-27T04:44:04.769Z,35.97
2019-03-27T04:45:04.753Z,36.07
2019-03-27T04:46:04.740Z,35.86
2019-03-27T04:47:04.724Z,36.07
2019-03-27T04:48:04.742Z,36.07
2019-03-27T04:49:07.744Z,35.97
2019-03-27T04:50:04.692Z,35.97
2019-03-27T04:51:04.674Z,36.07
2019-03-27T04:52:04.666Z,36.07
2019-03-27T04:53:04.691Z,36.07
2019-03-27T04:54:04.672Z,35.97
2019-03-27T04:55:04.636Z,35.97
2019-03-27T04:56:04.636Z,35.97
2019-03-27T04:57:04.621Z,35.77
2019-03-27T04:58:04.683Z,36.87
2019-03-27T04:59:04.595Z,35.86
2019-03-27T05:00:04.594Z,35.86
2019-03-27T05:01:04.560Z,35.77
2019-03-27T05:02:06.602Z,35.97
2019-03-27T05:03:04.575Z,36.87
2019-03-27T05:04:04.534Z,35.77
2019-03-27T05:05:04.523Z,35.86
2019-03-27T05:06:04.548Z,35.86
2019-03-27T05:07:04.510Z,36.16
2019-03-27T05:08:04.499Z,36.36
2019-03-27T05:09:04.478Z,36.16
2019-03-27T05:10:04.462Z,36.57
2019-03-27T05:11:04.453Z,36.07
2019-03-27T05:12:04.447Z,36.47
2019-03-27T05:13:05.532Z,36.16
2019-03-27T05:14:04.433Z,36.16
2019-03-27T05:15:04.408Z,36.27
2019-03-27T05:16:04.400Z,35.97
2019-03-27T05:17:04.387Z,36.57
2019-03-27T05:18:04.388Z,35.95
2019-03-27T05:19:04.364Z,36.16
2019-03-27T05:20:04.352Z,36.15
2019-03-27T05:21:04.338Z,36.27
2019-03-27T05:22:04.333Z,36.07
2019-03-27T05:23:04.337Z,35.77
2019-03-27T05:24:04.328Z,36.07
2019-03-27T05:25:04.319Z,36.67
2019-03-27T05:26:04.284Z,35.97
2019-03-27T05:27:04.278Z,36.16
2019-03-27T05:28:04.276Z,36.16
2019-03-27T05:29:04.256Z,36.27
2019-03-27T05:30:04.246Z,36.16
2019-03-27T05:31:04.233Z,36.16
2019-03-27T05:32:04.216Z,36.25
2019-03-27T05:33:04.223Z,36.16
2019-03-27T05:34:04.198Z,36.67
2019-03-27T05:35:04.208Z,36.16
2019-03-27T05:36:04.167Z,36.25
2019-03-27T05:37:04.158Z,35.97
2019-03-27T05:38:04.248Z,36.57
2019-03-27T05:39:04.136Z,36.16
2019-03-27T05:40:04.387Z,36.07
2019-03-27T05:41:04.118Z,35.97
2019-03-27T05:42:04.123Z,36.16
2019-03-27T05:43:04.097Z,35.97
2019-03-27T05:44:04.081Z,35.97
2019-03-27T05:45:04.080Z,35.97
2019-03-27T05:46:04.066Z,35.97
2019-03-27T05:47:04.067Z,36.16
2019-03-27T05:48:04.047Z,36.16
2019-03-27T05:49:04.032Z,35.97
2019-03-27T05:50:04.021Z,36.57
2019-03-27T05:51:04.007Z,36.07
2019-03-27T05:52:04.019Z,35.97
2019-03-27T05:53:03.988Z,36.27
2019-03-27T05:54:04.007Z,36.47
2019-03-27T05:55:03.973Z,36.07
2019-03-27T05:56:03.951Z,36.47
2019-03-27T05:57:03.940Z,36.57
2019-03-27T05:58:03.926Z,36.36
2019-03-27T05:59:03.930Z,36.67
2019-03-27T06:00:03.914Z,35.77
2019-03-27T06:01:03.895Z,35.77
2019-03-27T06:02:04.818Z,35.77
2019-03-27T06:03:03.895Z,36.07
2019-03-27T06:04:03.882Z,35.97
2019-03-27T06:05:03.863Z,36.57
2019-03-27T06:06:03.837Z,36.38
2019-03-27T06:07:03.833Z,35.77
2019-03-27T06:08:03.819Z,35.98
2019-03-27T06:09:03.831Z,35.98
2019-03-27T06:10:03.813Z,36.29
2019-03-27T06:11:03.788Z,35.68
2019-03-27T06:12:03.777Z,36.29
2019-03-27T06:13:03.760Z,36.69
2019-03-27T06:14:03.787Z,36.20
2019-03-27T06:15:03.747Z,36.50
2019-03-27T06:16:03.733Z,36.10
2019-03-27T06:17:03.730Z,36.50
2019-03-27T06:18:13.124Z,35.90
2019-03-27T06:19:03.709Z,36.10
2019-03-27T06:20:03.687Z,36.11
2019-03-27T06:21:03.680Z,36.22
2019-03-27T06:22:03.662Z,35.91
2019-03-27T06:23:03.648Z,36.02
2019-03-27T06:24:03.654Z,36.11
2019-03-27T06:25:03.631Z,36.32
2019-03-27T06:26:03.638Z,36.64
2019-03-27T06:27:03.614Z,36.22
2019-03-27T06:28:03.595Z,36.44
2019-03-27T06:29:03.598Z,36.24
2019-03-27T06:30:03.571Z,36.54
2019-03-27T06:31:03.584Z,36.54
2019-03-27T06:32:03.559Z,35.93
2019-03-27T06:33:03.554Z,36.04
2019-03-27T06:34:03.551Z,35.93
2019-03-27T06:35:03.510Z,36.13
2019-03-27T06:36:03.520Z,36.44
2019-03-27T06:37:03.543Z,36.33
2019-03-27T06:38:03.484Z,37.04
2019-03-27T06:39:03.490Z,36.44
2019-03-27T06:40:03.460Z,36.13
2019-03-27T06:41:03.453Z,36.24
2019-03-27T06:42:03.435Z,36.13
2019-03-27T06:43:03.429Z,36.24
2019-03-27T06:44:04.327Z,37.54
2019-03-27T06:45:03.437Z,36.84
2019-03-27T06:46:03.409Z,37.54
2019-03-27T06:47:03.389Z,37.52
2019-03-27T06:48:03.379Z,38.25
2019-03-27T06:49:03.394Z,37.54
2019-03-27T06:50:03.382Z,37.93
2019-03-27T06:51:03.350Z,37.73
2019-03-27T06:52:07.760Z,38.23
2019-03-27T06:53:03.312Z,38.23
2019-03-27T06:54:03.319Z,38.64
2019-03-27T06:55:03.340Z,38.83
2019-03-27T06:56:03.316Z,39.22
2019-03-27T06:57:03.286Z,39.32
2019-03-27T06:58:03.274Z,39.12
2019-03-27T06:59:03.254Z,39.32
2019-03-27T07:00:04.261Z,39.22
2019-03-27T07:01:03.255Z,39.22
2019-03-27T07:02:03.234Z,39.40
2019-03-27T07:03:03.214Z,39.50
2019-03-27T07:04:10.293Z,39.20
2019-03-27T07:05:03.396Z,39.40
2019-03-27T07:06:03.182Z,39.00
2019-03-27T07:07:03.170Z,39.30
2019-03-27T07:08:03.155Z,39.10
2019-03-27T07:09:03.143Z,39.10
2019-03-27T07:10:03.149Z,39.10
2019-03-27T07:11:03.120Z,38.90
2019-03-27T07:12:03.130Z,39.30
2019-03-27T07:13:03.098Z,38.79
2019-03-27T07:14:03.088Z,38.70
2019-03-27T07:15:03.097Z,38.79
2019-03-27T07:16:03.068Z,38.79
2019-03-27T07:17:03.064Z,39.20
2019-03-27T07:18:03.057Z,39.28
2019-03-27T07:19:03.048Z,39.28
2019-03-27T07:20:03.017Z,39.08
2019-03-27T07:21:03.040Z,37.89
2019-03-27T07:22:03.060Z,39.18
2019-03-27T07:23:02.999Z,38.98
2019-03-27T07:24:03.016Z,38.48
2019-03-27T07:25:02.995Z,38.78
2019-03-27T07:26:02.975Z,38.48
2019-03-27T07:27:02.947Z,38.48
2019-03-27T07:28:02.955Z,38.58
2019-03-27T07:29:02.946Z,38.28
2019-03-27T07:30:02.939Z,38.78
2019-03-27T07:31:02.957Z,38.58
2019-03-27T07:32:02.937Z,38.48
2019-03-27T07:33:02.901Z,38.58
2019-03-27T07:34:02.877Z,38.88
2019-03-27T07:35:02.871Z,38.68
2019-03-27T07:36:02.863Z,38.18
2019-03-27T07:37:02.859Z,38.98
2019-03-27T07:38:02.828Z,38.78
2019-03-27T07:39:10.971Z,38.98
2019-03-27T07:40:02.799Z,38.98
2019-03-27T07:41:02.810Z,38.78
2019-03-27T07:42:03.618Z,38.28
2019-03-27T07:43:02.782Z,38.86
2019-03-27T07:44:02.778Z,38.48
2019-03-27T07:45:02.765Z,38.78
2019-03-27T07:46:02.773Z,38.78
2019-03-27T07:47:02.726Z,38.28
2019-03-27T07:48:02.722Z,39.16
2019-03-27T07:49:02.717Z,38.28
2019-03-27T07:50:02.694Z,38.36
2019-03-27T07:51:02.721Z,37.96
2019-03-27T07:52:02.688Z,38.06
2019-03-27T07:53:02.666Z,38.16
2019-03-27T07:54:02.653Z,38.16
2019-03-27T07:55:02.650Z,38.06
2019-03-27T07:56:02.646Z,38.06
2019-03-27T07:57:02.654Z,38.16
2019-03-27T07:58:02.608Z,38.26
2019-03-27T07:59:02.620Z,38.26
2019-03-27T08:00:02.592Z,37.98
2019-03-27T08:01:02.599Z,38.26
2019-03-27T08:02:02.584Z,38.16
2019-03-27T08:03:02.621Z,38.88
2019-03-27T08:04:02.565Z,38.38
2019-03-27T08:05:02.541Z,38.86
2019-03-27T08:06:02.533Z,38.76
2019-03-27T08:07:02.517Z,38.26
2019-03-27T08:08:02.503Z,38.46
2019-03-27T08:09:02.480Z,38.26
2019-03-27T08:10:02.486Z,38.26
2019-03-27T08:11:02.472Z,38.26
2019-03-27T08:12:02.464Z,38.46
2019-03-27T08:13:02.463Z,38.06
2019-03-27T08:14:02.442Z,38.16
2019-03-27T08:15:02.443Z,38.06
2019-03-27T08:16:02.424Z,38.06
2019-03-27T08:17:02.401Z,38.36
2019-03-27T08:18:02.415Z,38.06
2019-03-27T08:19:07.707Z,38.06
2019-03-27T08:20:02.370Z,38.06
2019-03-27T08:21:02.361Z,38.06
2019-03-27T08:22:02.354Z,37.76
2019-03-27T08:23:02.350Z,38.06
2019-03-27T08:24:02.336Z,38.26
2019-03-27T08:25:02.328Z,38.76
2019-03-27T08:26:02.312Z,38.66
2019-03-27T08:27:02.313Z,38.26
2019-03-27T08:28:02.290Z,38.56
2019-03-27T08:29:02.270Z,38.76
2019-03-27T08:30:02.252Z,38.76
2019-03-27T08:31:02.274Z,38.96
2019-03-27T08:32:02.287Z,39.36
2019-03-27T08:33:02.224Z,39.47
2019-03-27T08:34:02.233Z,39.26
2019-03-27T08:35:02.211Z,39.26
2019-03-27T08:36:02.218Z,39.06
2019-03-27T08:37:02.214Z,39.36
2019-03-27T08:38:02.170Z,39.97
2019-03-27T08:39:02.172Z,40.17
2019-03-27T08:40:02.148Z,39.26
2019-03-27T08:41:02.161Z,40.57
2019-03-27T08:42:02.181Z,40.06
2019-03-27T08:43:02.152Z,40.06
2019-03-27T08:44:02.116Z,40.55
2019-03-27T08:45:02.093Z,40.77
2019-03-27T08:46:02.093Z,41.25
2019-03-27T08:47:02.074Z,41.55
2019-03-27T08:48:02.078Z,41.75
2019-03-27T08:49:02.054Z,41.85
2019-03-27T08:50:02.045Z,41.63
2019-03-27T08:51:02.025Z,42.55
2019-03-27T08:52:02.591Z,41.85
2019-03-27T08:53:02.033Z,42.05
2019-03-27T08:54:02.090Z,42.03
2019-03-27T08:55:01.994Z,42.24
2019-03-27T08:56:01.996Z,42.24
2019-03-27T08:57:01.969Z,42.03
2019-03-27T08:58:01.966Z,42.03
2019-03-27T08:59:01.966Z,42.13
2019-03-27T09:00:02.871Z,42.54
2019-03-27T09:01:01.928Z,41.83
2019-03-27T09:02:01.931Z,41.74
2019-03-27T09:03:03.455Z,41.83
2019-03-27T09:04:01.886Z,41.74
2019-03-27T09:05:01.880Z,41.63
2019-03-27T09:06:12.268Z,41.63
2019-03-27T09:07:16.033Z,42.13
2019-03-27T09:08:14.246Z,41.43
2019-03-27T09:09:15.618Z,41.93
2019-03-27T09:10:18.284Z,41.63
2019-03-27T09:12:15.330Z,41.74
2019-03-27T09:13:01.810Z,41.74
2019-03-27T09:14:01.774Z,41.63
2019-03-27T09:15:01.760Z,41.83
2019-03-27T09:16:01.748Z,41.53
2019-03-27T09:17:01.778Z,41.33
2019-03-27T09:18:01.786Z,41.43
2019-03-27T09:19:01.733Z,41.53
2019-03-27T09:20:01.732Z,41.33
2019-03-27T09:21:01.697Z,41.53
2019-03-27T09:22:01.710Z,41.74
2019-03-27T09:23:01.699Z,41.53
2019-03-27T09:24:03.046Z,41.74
2019-03-27T09:25:01.652Z,41.53
2019-03-27T09:26:01.666Z,41.74
2019-03-27T09:27:01.635Z,41.74
2019-03-27T09:28:01.637Z,41.53
2019-03-27T09:29:01.616Z,41.53
2019-03-27T09:30:01.643Z,41.43
2019-03-27T09:31:01.604Z,41.45
2019-03-27T09:32:01.580Z,41.45
2019-03-27T09:33:01.598Z,41.53
2019-03-27T09:34:01.568Z,41.23
2019-03-27T09:35:01.559Z,41.35
2019-03-27T09:36:01.656Z,41.13
2019-03-27T09:37:01.551Z,41.75
2019-03-27T09:38:01.636Z,41.74
2019-03-27T09:39:01.513Z,41.93
2019-03-27T09:40:01.518Z,42.03
2019-03-27T09:41:01.488Z,41.83
2019-03-27T09:42:01.686Z,41.83
2019-03-27T09:43:01.473Z,41.74
2019-03-27T09:44:01.484Z,41.53
2019-03-27T09:45:01.450Z,41.33
2019-03-27T09:46:01.432Z,41.03
2019-03-27T09:47:01.410Z,41.23
2019-03-27T09:48:03.432Z,42.03
2019-03-27T09:49:01.416Z,41.63
2019-03-27T09:50:01.395Z,41.33
2019-03-27T09:51:01.386Z,41.63
2019-03-27T09:52:01.380Z,42.03
2019-03-27T09:53:01.365Z,41.74
2019-03-27T09:54:01.363Z,41.74
2019-03-27T09:55:01.846Z,42.03
2019-03-27T09:56:01.324Z,42.13
2019-03-27T09:57:01.338Z,41.43
2019-03-27T09:58:01.327Z,41.43
2019-03-27T09:59:01.306Z,42.03
2019-03-27T10:00:01.304Z,41.43
2019-03-27T10:01:01.292Z,41.63
2019-03-27T10:02:01.268Z,41.43
2019-03-27T10:03:01.263Z,41.43
2019-03-27T10:04:01.256Z,41.13
2019-03-27T10:05:01.527Z,41.23
2019-03-27T10:06:01.230Z,40.93
2019-03-27T10:07:01.193Z,40.93
2019-03-27T10:08:01.228Z,40.43
2019-03-27T10:09:01.222Z,40.33
2019-03-27T10:10:01.192Z,40.43
2019-03-27T10:11:01.165Z,41.23
2019-03-27T10:12:01.141Z,40.93
2019-03-27T10:13:01.143Z,41.33
2019-03-27T10:14:01.269Z,41.23
2019-03-27T10:15:01.116Z,41.13
2019-03-27T10:16:01.108Z,40.83
2019-03-27T10:17:01.088Z,41.33
2019-03-27T10:18:01.089Z,40.53
2019-03-27T10:19:01.092Z,41.23
2019-03-27T10:20:03.840Z,40.83
2019-03-27T10:21:01.047Z,41.13
2019-03-27T10:22:01.039Z,41.03
2019-03-27T10:23:01.044Z,41.03
2019-03-27T10:24:01.025Z,40.83
2019-03-27T10:25:01.025Z,41.33
2019-03-27T10:26:01.014Z,40.43
2019-03-27T10:27:00.993Z,41.33
2019-03-27T10:28:00.965Z,41.63
2019-03-27T10:29:00.986Z,41.33
2019-03-27T10:30:00.959Z,41.74
2019-03-27T10:31:00.959Z,41.83
2019-03-27T10:32:00.931Z,42.33
2019-03-27T10:33:00.930Z,41.74
2019-03-27T10:34:00.914Z,42.74
2019-03-27T10:35:00.914Z,42.13
2019-03-27T10:36:00.888Z,42.63
2019-03-27T10:37:00.927Z,43.34
2019-03-27T10:38:00.862Z,43.14
2019-03-27T10:39:00.881Z,43.72
2019-03-27T10:40:00.838Z,43.44
2019-03-27T10:41:00.833Z,43.72
2019-03-27T10:42:00.820Z,43.44
2019-03-27T10:43:00.821Z,43.24
2019-03-27T10:44:00.818Z,42.82
2019-03-27T10:45:00.789Z,43.84
2019-03-27T10:46:00.783Z,43.84
2019-03-27T10:47:00.789Z,43.94
2019-03-27T10:48:01.052Z,43.44
2019-03-27T10:49:00.764Z,42.03
2019-03-27T10:50:01.719Z,43.14
2019-03-27T10:51:00.714Z,43.04
2019-03-27T10:52:00.705Z,43.76
2019-03-27T10:53:00.698Z,43.66
2019-03-27T10:54:00.722Z,41.96
2019-03-27T10:55:00.699Z,42.46
2019-03-27T10:56:00.667Z,41.67
2019-03-27T10:57:00.666Z,41.67
2019-03-27T10:58:00.641Z,41.57
2019-03-27T10:59:00.744Z,41.37
2019-03-27T11:00:00.626Z,39.47
2019-03-27T11:01:00.613Z,39.76
2019-03-27T11:02:00.596Z,41.09
2019-03-27T11:03:00.586Z,40.69
2019-03-27T11:04:00.627Z,41.29
2019-03-27T11:05:01.720Z,41.19
2019-03-27T11:06:00.562Z,40.39
2019-03-27T11:07:00.548Z,40.79
2019-03-27T11:08:00.535Z,40.79
2019-03-27T11:09:00.545Z,40.11
2019-03-27T11:10:00.524Z,39.40
2019-03-27T11:11:00.502Z,40.20
2019-03-27T11:12:00.507Z,39.30
2019-03-27T11:13:00.478Z,39.70
2019-03-27T11:14:00.492Z,39.10
2019-03-27T11:15:00.534Z,39.80
2019-03-27T11:16:00.475Z,39.40
2019-03-27T11:17:00.463Z,39.40
2019-03-27T11:18:00.436Z,39.40
2019-03-27T11:19:00.423Z,38.90
2019-03-27T11:20:00.436Z,37.89
2019-03-27T11:21:00.403Z,38.90
2019-03-27T11:22:00.386Z,39.10
2019-03-27T11:23:00.370Z,37.99
2019-03-27T11:24:00.376Z,38.60
2019-03-27T11:25:00.385Z,38.60
2019-03-27T11:26:00.350Z,38.79
2019-03-27T11:27:00.356Z,37.79
2019-03-27T11:28:00.321Z,37.49
2019-03-27T11:29:00.327Z,37.89
2019-03-27T11:30:00.392Z,37.59
2019-03-27T11:31:00.312Z,37.69
2019-03-27T11:32:00.277Z,37.59
2019-03-27T11:33:00.263Z,36.89
2019-03-27T11:34:00.277Z,36.89
2019-03-27T11:35:00.393Z,37.59
2019-03-27T11:36:00.231Z,37.39
2019-03-27T11:37:00.220Z,37.49
2019-03-27T11:38:00.215Z,37.49
2019-03-27T11:39:00.215Z,37.08
2019-03-27T11:40:00.375Z,37.39
2019-03-27T11:41:00.175Z,36.49
2019-03-27T11:42:00.902Z,36.40
2019-03-27T11:43:00.151Z,36.79
2019-03-27T11:44:00.151Z,36.80
2019-03-27T11:45:00.347Z,36.99
2019-03-27T11:46:00.129Z,37.49
2019-03-27T11:47:00.118Z,37.61
2019-03-27T11:48:00.098Z,37.30
2019-03-27T11:49:00.090Z,37.19
2019-03-27T11:50:00.350Z,36.99
2019-03-27T11:51:00.076Z,37.29
2019-03-27T11:52:00.053Z,37.29
2019-03-27T11:53:00.082Z,37.29
2019-03-27T11:54:00.036Z,37.29
2019-03-27T11:55:00.346Z,37.08
2019-03-27T11:56:03.159Z,36.29
2019-03-27T11:57:00.020Z,36.18
2019-03-27T11:57:59.994Z,36.08
2019-03-27T11:58:59.997Z,36.58
2019-03-27T12:00:00.275Z,35.88
2019-03-27T12:00:59.993Z,36.29
2019-03-27T12:01:59.955Z,36.08
2019-03-27T12:02:59.949Z,36.18
2019-03-27T12:03:59.937Z,36.18
2019-03-27T12:04:59.929Z,35.98
2019-03-27T12:05:59.922Z,36.18
2019-03-27T12:06:59.903Z,35.28
2019-03-27T12:07:59.888Z,35.78
2019-03-27T12:08:59.873Z,35.28
2019-03-27T12:09:59.864Z,34.98
2019-03-27T12:10:59.879Z,35.38
2019-03-27T12:11:59.856Z,35.38
2019-03-27T12:12:59.841Z,35.48
2019-03-27T12:13:59.828Z,34.78
2019-03-27T12:14:59.845Z,34.38
2019-03-27T12:15:59.816Z,34.38
2019-03-27T12:16:59.803Z,34.78
2019-03-27T12:17:59.794Z,34.19
2019-03-27T12:18:59.777Z,34.17
2019-03-27T12:19:59.765Z,34.09
2019-03-27T12:20:59.917Z,34.88
2019-03-27T12:21:59.746Z,35.18
2019-03-27T12:22:59.723Z,35.28
2019-03-27T12:23:59.725Z,35.48
2019-03-27T12:24:59.693Z,35.88
2019-03-27T12:25:59.725Z,35.78
2019-03-27T12:26:59.696Z,36.69
2019-03-27T12:27:59.663Z,35.48
2019-03-27T12:28:59.667Z,35.77
2019-03-27T12:29:59.662Z,36.16
2019-03-27T12:30:59.649Z,35.46
2019-03-27T12:31:59.638Z,35.97
2019-03-27T12:32:59.618Z,36.15
2019-03-27T12:33:59.600Z,36.35
2019-03-27T12:34:59.605Z,36.97
2019-03-27T12:35:59.607Z,36.75
2019-03-27T12:36:59.566Z,37.05
2019-03-27T12:37:59.562Z,37.05
2019-03-27T12:38:59.577Z,37.85
2019-03-27T12:39:59.532Z,37.44
2019-03-27T12:40:59.543Z,37.05
2019-03-27T12:41:59.521Z,37.85
2019-03-27T12:42:59.500Z,37.35
2019-03-27T12:44:02.464Z,38.16
2019-03-27T12:45:01.794Z,37.96
2019-03-27T12:45:59.488Z,37.55
2019-03-27T12:46:59.464Z,37.96
2019-03-27T12:47:59.471Z,37.55
2019-03-27T12:48:59.442Z,37.55
2019-03-27T12:49:59.424Z,37.65
2019-03-27T12:51:12.167Z,37.35
2019-03-27T12:51:59.402Z,37.55
2019-03-27T12:52:59.408Z,38.16